createdAt,value
2018-09-27T00:02:04.783Z,1.50
2018-09-27T00:04:31.988Z,1.63
2018-09-27T00:06:59.198Z,1.53
2018-09-27T00:09:26.424Z,1.20
2018-09-27T00:11:53.743Z,2.87
2018-09-27T00:14:20.945Z,1.67
2018-09-27T00:16:48.191Z,1.93
2018-09-27T00:19:15.395Z,1.30
2018-09-27T00:21:42.566Z,1.90
2018-09-27T00:24:09.882Z,1.60
2018-09-27T00:26:37.121Z,1.87
2018-09-27T00:29:04.373Z,1.97
2018-09-27T00:31:31.718Z,1.80
2018-09-27T00:33:58.915Z,1.50
2018-09-27T00:36:26.105Z,1.93
2018-09-27T00:38:53.399Z,2.13
2018-09-27T00:41:20.643Z,1.53
2018-09-27T00:43:47.833Z,1.80
2018-09-27T00:46:15.190Z,1.60
2018-09-27T00:48:42.392Z,1.70
2018-09-27T00:51:09.587Z,2.43
2018-09-27T00:53:36.922Z,1.70
2018-09-27T00:56:04.113Z,2.80
2018-09-27T00:58:31.322Z,1.67
2018-09-27T01:00:58.658Z,1.93
2018-09-27T01:03:25.869Z,1.27
2018-09-27T01:05:53.076Z,1.90
2018-09-27T01:08:20.390Z,1.40
2018-09-27T01:10:47.582Z,2.00
2018-09-27T01:13:14.793Z,1.90
2018-09-27T01:15:42.104Z,1.83
2018-09-27T01:18:09.310Z,1.60
2018-09-27T01:20:36.574Z,1.60
2018-09-27T01:23:03.975Z,1.97
2018-09-27T01:25:31.195Z,1.83
2018-09-27T01:27:58.497Z,1.50
2018-09-27T01:30:25.748Z,1.80
2018-09-27T01:32:52.935Z,2.10
2018-09-27T01:35:20.124Z,1.67
2018-09-27T01:37:47.410Z,1.13
2018-09-27T01:40:14.591Z,2.03
2018-09-27T01:42:41.870Z,1.90
2018-09-27T01:45:09.162Z,1.60
2018-09-27T01:47:36.366Z,1.70
2018-09-27T01:50:03.561Z,2.30
2018-09-27T01:52:30.884Z,1.20
2018-09-27T01:54:58.054Z,1.97
2018-09-27T01:57:25.263Z,2.47
2018-09-27T01:59:52.579Z,2.33
2018-09-27T02:02:19.775Z,1.97
2018-09-27T02:04:46.964Z,2.20
2018-09-27T02:07:14.283Z,2.73
2018-09-27T02:09:41.481Z,2.03
2018-09-27T02:12:08.669Z,2.80
2018-09-27T02:14:36.219Z,2.47
2018-09-27T02:17:03.438Z,2.30
2018-09-27T02:19:30.621Z,1.73
2018-09-27T02:21:57.939Z,2.80
2018-09-27T02:24:25.137Z,2.10
2018-09-27T02:26:52.370Z,1.83
2018-09-27T02:29:19.734Z,2.23
2018-09-27T02:31:46.945Z,2.03
2018-09-27T02:34:14.155Z,1.97
2018-09-27T02:36:41.469Z,1.60
2018-09-27T02:39:09.623Z,2.80
2018-09-27T02:41:37.200Z,2.03
2018-09-27T02:44:04.526Z,2.03
2018-09-27T02:46:31.741Z,2.17
2018-09-27T02:48:58.938Z,1.63
2018-09-27T02:51:26.183Z,1.80
2018-09-27T02:54:00.053Z,2.17
2018-09-27T02:56:27.378Z,1.60
2018-09-27T02:58:54.559Z,1.73
2018-09-27T03:01:21.768Z,2.27
2018-09-27T03:03:49.015Z,1.50
2018-09-27T03:06:16.240Z,1.67
2018-09-27T03:08:43.437Z,2.30
2018-09-27T03:11:10.735Z,1.80
2018-09-27T03:13:37.991Z,2.63
2018-09-27T03:16:05.212Z,2.00
2018-09-27T03:18:32.552Z,1.60
2018-09-27T03:20:59.801Z,2.20
2018-09-27T03:23:26.967Z,1.50
2018-09-27T03:25:54.546Z,1.83
2018-09-27T03:28:21.743Z,1.47
2018-09-27T03:30:48.930Z,1.67
2018-09-27T03:33:16.247Z,1.93
2018-09-27T03:35:43.453Z,1.97
2018-09-27T03:38:10.707Z,1.83
2018-09-27T03:40:38.218Z,1.90
2018-09-27T03:43:05.304Z,1.53
2018-09-27T03:45:32.492Z,1.77
2018-09-27T03:47:59.806Z,1.20
2018-09-27T03:50:27.014Z,1.77
2018-09-27T03:52:54.216Z,2.23
2018-09-27T03:55:21.442Z,2.10
2018-09-27T03:57:48.680Z,1.97
2018-09-27T04:00:15.876Z,1.80
2018-09-27T04:02:43.243Z,1.60
2018-09-27T04:05:10.438Z,2.00
2018-09-27T04:07:37.623Z,1.63
2018-09-27T04:10:04.947Z,1.83
2018-09-27T04:12:32.158Z,2.30
2018-09-27T04:14:59.384Z,1.67
2018-09-27T04:17:26.692Z,2.47
2018-09-27T04:19:53.902Z,2.03
2018-09-27T04:22:21.098Z,2.37
2018-09-27T04:24:48.502Z,2.30
2018-09-27T04:27:15.729Z,2.40
2018-09-27T04:29:42.976Z,1.60
2018-09-27T04:32:10.266Z,2.47
2018-09-27T04:34:37.491Z,1.37
2018-09-27T04:37:04.699Z,1.67
2018-09-27T04:39:31.995Z,2.17
2018-09-27T04:41:59.209Z,1.97
2018-09-27T04:44:26.427Z,2.17
2018-09-27T04:46:53.740Z,1.83
2018-09-27T04:49:20.931Z,1.90
2018-09-27T04:51:48.156Z,1.80
2018-09-27T04:54:15.397Z,2.03
2018-09-27T04:56:42.593Z,1.97
2018-09-27T04:59:09.798Z,1.53
2018-09-27T05:01:37.028Z,1.67
2018-09-27T05:04:04.276Z,1.80
2018-09-27T05:06:31.556Z,1.90
2018-09-27T05:08:58.724Z,1.60
2018-09-27T05:11:25.964Z,1.70
2018-09-27T05:13:53.162Z,2.00
2018-09-27T05:16:20.574Z,2.03
2018-09-27T05:18:47.824Z,2.67
2018-09-27T05:21:15.029Z,2.00
2018-09-27T05:23:42.384Z,1.90
2018-09-27T05:26:09.602Z,1.97
2018-09-27T05:28:36.850Z,2.07
2018-09-27T05:31:04.146Z,2.07
2018-09-27T05:33:31.353Z,2.23
2018-09-27T05:35:58.533Z,2.03
2018-09-27T05:38:25.861Z,2.23
2018-09-27T05:40:53.138Z,1.93
2018-09-27T05:43:20.325Z,1.80
2018-09-27T05:45:47.561Z,2.23
2018-09-27T05:48:14.782Z,2.67
2018-09-27T05:50:42.001Z,2.00
2018-09-27T05:53:09.432Z,1.80
2018-09-27T05:55:37.024Z,2.00
2018-09-27T05:58:04.453Z,2.20
2018-09-27T06:00:31.823Z,2.00
2018-09-27T06:02:59.002Z,2.30
2018-09-27T06:05:26.203Z,1.47
2018-09-27T06:07:54.254Z,1.97
2018-09-27T06:10:21.492Z,2.13
2018-09-27T06:12:48.708Z,2.00
2018-09-27T06:15:16.040Z,1.80
2018-09-27T06:17:43.217Z,2.47
2018-09-27T06:20:10.442Z,2.40
2018-09-27T06:22:37.767Z,2.13
2018-09-27T06:25:04.956Z,1.83
2018-09-27T06:27:32.189Z,2.13
2018-09-27T06:29:59.512Z,1.73
2018-09-27T06:32:26.711Z,1.60
2018-09-27T06:34:53.970Z,1.93
2018-09-27T06:37:21.272Z,1.40
2018-09-27T06:39:48.464Z,2.00
2018-09-27T06:42:15.642Z,1.30
2018-09-27T06:44:42.987Z,1.37
2018-09-27T06:47:10.199Z,1.80
2018-09-27T06:49:37.427Z,1.90
2018-09-27T06:52:04.869Z,2.10
2018-09-27T06:54:32.123Z,1.97
2018-09-27T06:56:59.311Z,1.60
2018-09-27T06:59:26.602Z,1.60
2018-09-27T07:01:53.791Z,1.30
2018-09-27T07:04:21.004Z,1.80
2018-09-27T07:06:48.364Z,1.70
2018-09-27T07:09:15.555Z,2.37
2018-09-27T07:11:42.779Z,1.63
2018-09-27T07:14:10.737Z,2.17
2018-09-27T07:16:37.943Z,2.30
2018-09-27T07:19:05.573Z,1.30
2018-09-27T07:21:32.891Z,2.10
2018-09-27T07:24:00.121Z,1.33
2018-09-27T07:26:27.386Z,1.73
2018-09-27T07:28:54.712Z,1.63
2018-09-27T07:31:21.923Z,1.57
2018-09-27T07:33:49.130Z,1.50
2018-09-27T07:36:16.358Z,1.77
2018-09-27T07:38:43.597Z,1.30
2018-09-27T07:41:10.766Z,1.30
2018-09-27T07:43:38.004Z,2.10
2018-09-27T07:46:05.313Z,2.10
2018-09-27T07:48:32.515Z,1.40
2018-09-27T07:51:00.129Z,1.63
2018-09-27T07:53:27.414Z,1.40
2018-09-27T07:55:54.607Z,1.33
2018-09-27T07:58:21.919Z,2.60
2018-09-27T08:00:49.113Z,1.60
2018-09-27T08:03:16.316Z,1.40
2018-09-27T08:05:43.638Z,2.23
2018-09-27T08:08:10.822Z,1.47
2018-09-27T08:10:38.096Z,0.93
2018-09-27T08:13:05.410Z,1.80
2018-09-27T08:15:32.616Z,1.90
2018-09-27T08:18:00.524Z,1.70
2018-09-27T08:20:27.864Z,1.40
2018-09-27T08:22:55.033Z,1.60
2018-09-27T08:25:22.222Z,1.10
2018-09-27T08:27:49.524Z,1.37
2018-09-27T08:30:16.749Z,1.20
2018-09-27T08:32:44.016Z,1.17
2018-09-27T08:35:11.279Z,1.30
2018-09-27T08:37:38.564Z,1.10
2018-09-27T08:40:06.087Z,0.90
2018-09-27T08:42:33.424Z,1.03
2018-09-27T08:45:01.900Z,0.90
2018-09-27T08:47:28.815Z,0.87
2018-09-27T08:49:56.119Z,0.80
2018-09-27T08:52:23.298Z,1.20
2018-09-27T08:54:50.501Z,1.20
2018-09-27T08:57:17.710Z,1.00
2018-09-27T08:59:44.938Z,1.70
2018-09-27T09:02:12.139Z,1.37
2018-09-27T09:04:39.445Z,1.30
2018-09-27T09:07:06.644Z,1.60
2018-09-27T09:09:33.903Z,1.70
2018-09-27T09:12:01.112Z,1.80
2018-09-27T09:14:28.328Z,2.23
2018-09-27T09:16:55.544Z,1.93
2018-09-27T09:19:22.923Z,1.57
2018-09-27T09:21:50.154Z,1.80
2018-09-27T09:24:17.355Z,1.70
2018-09-27T09:26:44.662Z,1.70
2018-09-27T09:29:11.855Z,1.50
2018-09-27T09:31:39.119Z,1.73
2018-09-27T09:34:06.493Z,2.03
2018-09-27T09:36:33.691Z,1.40
2018-09-27T09:39:00.885Z,1.40
2018-09-27T09:41:28.196Z,1.37
2018-09-27T09:43:55.401Z,1.50
2018-09-27T09:46:22.611Z,1.70
2018-09-27T09:48:49.924Z,1.50
2018-09-27T09:51:17.135Z,1.20
2018-09-27T09:53:44.337Z,1.20
2018-09-27T09:56:11.659Z,1.37
2018-09-27T09:58:38.850Z,1.20
2018-09-27T10:01:06.095Z,1.70
2018-09-27T10:03:33.327Z,1.00
2018-09-27T10:06:00.528Z,1.00
2018-09-27T10:08:27.746Z,1.20
2018-09-27T10:10:55.039Z,1.30
2018-09-27T10:13:22.249Z,1.10
2018-09-27T10:15:49.443Z,0.90
2018-09-27T10:20:50.923Z,0.87
2018-09-27T10:23:18.250Z,0.90
2018-09-27T10:25:45.431Z,0.83
2018-09-27T10:28:12.645Z,1.10
2018-09-27T10:30:39.899Z,1.00
2018-09-27T10:33:07.173Z,1.40
2018-09-27T10:35:34.387Z,1.00
2018-09-27T10:38:01.702Z,1.90
2018-09-27T10:40:28.913Z,1.43
2018-09-27T10:42:56.097Z,1.07
2018-09-27T10:45:23.339Z,1.40
2018-09-27T10:47:50.540Z,1.40
2018-09-27T10:50:17.730Z,1.10
2018-09-27T10:52:45.039Z,1.53
2018-09-27T10:55:12.309Z,1.20
2018-09-27T10:57:39.568Z,1.20
2018-09-27T11:00:07.023Z,1.30
2018-09-27T11:02:34.205Z,1.30
2018-09-27T11:05:01.403Z,1.10
2018-09-27T11:07:28.717Z,1.50
2018-09-27T11:09:55.930Z,1.67
2018-09-27T11:12:23.129Z,1.67
2018-09-27T11:14:50.427Z,1.50
2018-09-27T11:17:17.611Z,1.93
2018-09-27T11:19:44.812Z,1.40
2018-09-27T11:22:12.840Z,1.33
2018-09-27T11:24:40.092Z,1.30
2018-09-27T11:27:07.586Z,1.30
2018-09-27T11:29:40.761Z,1.37
2018-09-27T11:32:13.630Z,1.40
2018-09-27T11:34:40.922Z,1.73
2018-09-27T11:37:08.196Z,2.07
2018-09-27T11:39:35.429Z,1.50
2018-09-27T11:42:02.749Z,1.70
2018-09-27T11:44:29.950Z,1.70
2018-09-27T11:46:57.233Z,1.80
2018-09-27T11:49:27.450Z,2.10
2018-09-27T11:51:54.683Z,2.03
2018-09-27T11:54:22.223Z,1.73
2018-09-27T11:56:50.366Z,1.80
2018-09-27T11:59:17.575Z,2.20
2018-09-27T12:01:44.881Z,1.90
2018-09-27T12:04:12.163Z,1.93
2018-09-27T12:06:39.436Z,2.23
2018-09-27T12:09:08.758Z,1.97
2018-09-27T12:11:36.040Z,2.20
2018-09-27T12:14:03.243Z,2.10
2018-09-27T12:16:30.539Z,2.53
2018-09-27T12:18:57.811Z,2.30
2018-09-27T12:21:25.000Z,2.53
2018-09-27T12:23:52.211Z,2.33
2018-09-27T12:26:19.447Z,2.70
2018-09-27T12:28:46.703Z,2.20
2018-09-27T12:31:13.896Z,2.90
2018-09-27T12:33:41.176Z,2.50
2018-09-27T12:36:08.494Z,3.83
2018-09-27T12:38:35.768Z,2.93
2018-09-27T12:41:02.990Z,2.97
2018-09-27T12:43:30.186Z,2.93
2018-09-27T12:45:57.503Z,3.30
2018-09-27T12:48:24.802Z,3.43
2018-09-27T12:50:51.979Z,2.77
2018-09-27T12:53:19.222Z,2.90
2018-09-27T12:55:46.560Z,2.37
2018-09-27T12:58:13.815Z,3.30
2018-09-27T13:00:41.046Z,2.80
2018-09-27T13:03:08.266Z,3.07
2018-09-27T13:05:35.475Z,2.80
2018-09-27T13:08:02.657Z,2.70
2018-09-27T13:10:29.913Z,3.33
2018-09-27T13:12:57.118Z,3.60
2018-09-27T13:15:24.336Z,3.37
2018-09-27T13:17:51.633Z,3.33
2018-09-27T13:20:18.849Z,3.00
2018-09-27T13:22:46.024Z,2.83
2018-09-27T13:25:13.363Z,3.83
2018-09-27T13:27:40.536Z,3.37
2018-09-27T13:30:07.822Z,3.40
2018-09-27T13:32:35.151Z,3.33
2018-09-27T13:35:02.401Z,3.93
2018-09-27T13:37:29.590Z,3.37
2018-09-27T13:39:56.982Z,3.73
2018-09-27T13:42:24.335Z,4.47
2018-09-27T13:44:51.544Z,3.30
2018-09-27T13:47:18.862Z,3.67
2018-09-27T13:49:46.074Z,3.17
2018-09-27T13:52:13.254Z,3.57
2018-09-27T13:54:40.574Z,3.63
2018-09-27T13:57:07.969Z,3.63
2018-09-27T13:59:35.077Z,3.77
2018-09-27T14:02:02.376Z,5.23
2018-09-27T14:04:29.555Z,3.60
2018-09-27T14:06:56.737Z,4.07
2018-09-27T14:09:24.033Z,5.00
2018-09-27T14:11:51.257Z,4.60
2018-09-27T14:14:18.455Z,4.13
2018-09-27T14:16:45.772Z,4.50
2018-09-27T14:19:13.002Z,4.67
2018-09-27T14:21:40.187Z,4.90
2018-09-27T14:24:07.416Z,4.83
2018-09-27T14:26:34.592Z,4.60
2018-09-27T14:29:01.771Z,5.30
2018-09-27T14:31:29.136Z,5.60
2018-09-27T14:33:56.389Z,4.90
2018-09-27T14:36:23.572Z,6.17
2018-09-27T14:38:50.859Z,6.60
2018-09-27T14:41:18.094Z,6.03
2018-09-27T14:43:45.274Z,6.20
2018-09-27T14:46:12.566Z,6.43
2018-09-27T14:48:39.797Z,6.07
2018-09-27T14:51:06.979Z,6.63
2018-09-27T14:53:34.309Z,7.33
2018-09-27T14:56:01.517Z,6.97
2018-09-27T14:58:28.735Z,7.63
2018-09-27T15:00:56.164Z,8.00
2018-09-27T15:03:23.351Z,7.40
2018-09-27T15:05:51.329Z,9.07
2018-09-27T15:08:18.687Z,8.83
2018-09-27T15:10:45.942Z,7.93
2018-09-27T15:13:13.072Z,9.40
2018-09-27T15:15:40.363Z,8.80
2018-09-27T15:18:07.570Z,8.80
2018-09-27T15:20:34.818Z,9.10
2018-09-27T15:23:02.191Z,9.13
2018-09-27T15:25:29.403Z,9.20
2018-09-27T15:27:56.605Z,9.00
2018-09-27T15:30:23.939Z,9.70
2018-09-27T15:32:51.094Z,9.53
2018-09-27T15:35:18.311Z,9.63
2018-09-27T15:37:45.599Z,9.37
2018-09-27T15:40:12.787Z,9.90
2018-09-27T15:42:39.996Z,9.33
2018-09-27T15:45:07.299Z,10.63
2018-09-27T15:47:34.493Z,10.20
2018-09-27T15:50:01.692Z,9.57
2018-09-27T15:52:28.985Z,10.20
2018-09-27T15:54:56.184Z,10.20
2018-09-27T15:57:23.379Z,9.03
2018-09-27T15:59:50.938Z,10.47
2018-09-27T16:02:18.167Z,9.53
2018-09-27T16:04:45.384Z,10.00
2018-09-27T16:07:12.634Z,9.17
2018-09-27T16:09:39.845Z,9.30
2018-09-27T16:12:07.057Z,9.00
2018-09-27T16:14:34.377Z,10.13
2018-09-27T16:17:01.555Z,9.33
2018-09-27T16:19:28.776Z,8.60
2018-09-27T16:21:56.094Z,8.47
2018-09-27T16:24:23.326Z,9.10
2018-09-27T16:26:50.543Z,8.03
2018-09-27T16:29:17.890Z,8.77
2018-09-27T16:31:45.116Z,8.03
2018-09-27T16:34:12.310Z,7.80
2018-09-27T16:36:39.654Z,7.17
2018-09-27T16:39:08.101Z,7.27
2018-09-27T16:41:35.302Z,7.20
2018-09-27T16:44:02.626Z,6.63
2018-09-27T16:46:30.757Z,6.60
2018-09-27T16:48:58.040Z,6.50
2018-09-27T16:51:25.255Z,6.30
2018-09-27T16:53:52.459Z,6.43
2018-09-27T16:56:19.700Z,6.37
2018-09-27T16:58:47.038Z,7.10
2018-09-27T17:01:14.276Z,7.20
2018-09-27T17:03:41.487Z,7.20
2018-09-27T17:06:08.832Z,7.53
2018-09-27T17:08:36.045Z,7.23
2018-09-27T17:11:03.304Z,7.23
2018-09-27T17:13:30.566Z,7.33
2018-09-27T17:15:57.788Z,7.60
2018-09-27T17:18:25.003Z,7.30
2018-09-27T17:20:52.326Z,8.60
2018-09-27T17:23:19.535Z,8.20
2018-09-27T17:25:46.781Z,8.87
2018-09-27T17:28:14.110Z,7.67
2018-09-27T17:30:41.348Z,8.30
2018-09-27T17:33:08.560Z,8.40
2018-09-27T17:35:35.967Z,8.53
2018-09-27T17:38:03.152Z,8.93
2018-09-27T17:40:30.385Z,8.27
2018-09-27T17:42:57.792Z,8.83
2018-09-27T17:45:24.996Z,8.20
2018-09-27T17:47:52.183Z,8.80
2018-09-27T17:50:19.887Z,8.40
2018-09-27T17:52:47.076Z,9.03
2018-09-27T17:55:14.342Z,9.37
2018-09-27T17:57:41.639Z,8.70
2018-09-27T18:00:08.836Z,10.10
2018-09-27T18:02:36.027Z,10.90
2018-09-27T18:05:03.473Z,9.93
2018-09-27T18:07:30.681Z,9.53
2018-09-27T18:09:57.882Z,9.57
2018-09-27T18:12:25.199Z,8.80
2018-09-27T18:14:52.383Z,9.43
2018-09-27T18:17:19.797Z,10.00
2018-09-27T18:19:47.177Z,10.03
2018-09-27T18:22:14.390Z,10.30
2018-09-27T18:24:41.611Z,10.10
2018-09-27T18:27:08.909Z,11.00
2018-09-27T18:29:36.105Z,9.40
2018-09-27T18:32:03.286Z,10.90
2018-09-27T18:34:30.772Z,10.27
2018-09-27T18:36:57.970Z,10.07
2018-09-27T18:39:25.808Z,10.80
2018-09-27T18:41:53.107Z,10.17
2018-09-27T18:44:20.292Z,10.37
2018-09-27T18:46:47.495Z,10.97
2018-09-27T18:49:14.805Z,9.27
2018-09-27T18:51:42.019Z,9.83
2018-09-27T18:54:09.214Z,10.67
2018-09-27T18:56:36.605Z,9.80
2018-09-27T18:59:03.817Z,9.20
2018-09-27T19:01:31.023Z,10.70
2018-09-27T19:03:58.272Z,9.93
2018-09-27T19:06:25.536Z,10.13
2018-09-27T19:08:52.870Z,9.63
2018-09-27T19:11:20.193Z,9.10
2018-09-27T19:13:47.383Z,9.03
2018-09-27T19:16:14.604Z,9.57
2018-09-27T19:18:41.974Z,10.33
2018-09-27T19:21:09.176Z,10.27
2018-09-27T19:23:36.524Z,9.30
2018-09-27T19:26:03.841Z,9.83
2018-09-27T19:28:31.059Z,8.73
2018-09-27T19:33:32.545Z,7.60
2018-09-27T19:35:59.749Z,6.40
2018-09-27T19:38:27.749Z,6.43
2018-09-27T19:40:55.119Z,5.13
2018-09-27T19:43:22.315Z,6.03
2018-09-27T19:45:49.786Z,6.37
2018-09-27T19:48:17.094Z,5.10
2018-09-27T19:50:44.414Z,5.57
2018-09-27T19:53:11.627Z,6.33
2018-09-27T19:55:38.920Z,5.50
2018-09-27T19:58:06.202Z,4.30
2018-09-27T20:00:33.355Z,5.23
2018-09-27T20:03:00.703Z,4.53
2018-09-27T20:05:27.943Z,3.97
2018-09-27T20:07:55.130Z,4.23
2018-09-27T20:10:22.465Z,3.00
2018-09-27T20:12:49.665Z,2.80
2018-09-27T20:15:16.846Z,3.20
2018-09-27T20:17:44.196Z,2.77
2018-09-27T20:20:11.505Z,3.20
2018-09-27T20:22:38.789Z,2.80
2018-09-27T20:25:05.955Z,3.20
2018-09-27T20:27:33.163Z,3.10
2018-09-27T20:30:00.396Z,3.20
2018-09-27T20:32:27.729Z,3.63
2018-09-27T20:34:55.001Z,3.10
2018-09-27T20:37:22.139Z,3.10
2018-09-27T20:39:49.448Z,3.27
2018-09-27T20:42:16.635Z,2.97
2018-09-27T20:47:18.145Z,3.10
2018-09-27T20:49:45.399Z,2.73
2018-09-27T20:52:12.751Z,3.20
2018-09-27T20:54:40.063Z,4.13
2018-09-27T20:57:07.588Z,2.90
2018-09-27T20:59:34.782Z,2.97
2018-09-27T21:02:02.087Z,2.80
2018-09-27T21:04:29.363Z,2.97
2018-09-27T21:06:56.570Z,3.33
2018-09-27T21:09:23.823Z,2.93
2018-09-27T21:11:51.039Z,3.10
2018-09-27T21:14:18.235Z,2.73
2018-09-27T21:16:45.554Z,2.77
2018-09-27T21:19:12.753Z,2.23
2018-09-27T21:21:39.959Z,1.20
2018-09-27T21:24:07.322Z,1.90
2018-09-27T21:26:34.624Z,1.70
2018-09-27T21:29:01.787Z,2.17
2018-09-27T21:31:29.096Z,2.13
2018-09-27T21:33:56.310Z,2.33
2018-09-27T21:36:23.535Z,2.17
2018-09-27T21:38:50.838Z,2.40
2018-09-27T21:41:18.037Z,2.40
2018-09-27T21:43:45.261Z,2.50
2018-09-27T21:46:12.623Z,3.40
2018-09-27T21:48:39.834Z,4.00
2018-09-27T21:51:07.046Z,3.07
2018-09-27T21:53:34.376Z,2.60
2018-09-27T21:56:01.922Z,1.90
2018-09-27T21:58:29.126Z,1.60
2018-09-27T22:00:56.436Z,1.40
2018-09-27T22:03:23.858Z,1.83
2018-09-27T22:05:51.177Z,1.10
2018-09-27T22:08:18.471Z,1.30
2018-09-27T22:10:45.687Z,2.00
2018-09-27T22:13:12.896Z,1.33
2018-09-27T22:15:40.263Z,1.93
2018-09-27T22:18:07.460Z,2.40
2018-09-27T22:20:34.667Z,2.33
2018-09-27T22:23:02.068Z,2.10
2018-09-27T22:25:29.304Z,2.33
2018-09-27T22:27:56.509Z,2.83
2018-09-27T22:30:23.822Z,2.90
2018-09-27T22:32:51.036Z,2.60
2018-09-27T22:35:18.242Z,2.40
2018-09-27T22:37:45.571Z,2.23
2018-09-27T22:40:12.980Z,2.73
2018-09-27T22:42:40.176Z,2.17
2018-09-27T22:45:07.516Z,1.67
2018-09-27T22:47:35.480Z,1.47
2018-09-27T22:50:02.694Z,0.90
2018-09-27T22:52:30.040Z,1.20
2018-09-27T22:54:57.254Z,0.97
2018-09-27T22:57:24.492Z,0.90
2018-09-27T22:59:51.787Z,0.90
2018-09-27T23:02:19.046Z,1.10
2018-09-27T23:04:46.234Z,1.10
2018-09-27T23:07:13.479Z,1.07
2018-09-27T23:09:40.679Z,1.23
2018-09-27T23:12:07.878Z,0.80
2018-09-27T23:14:35.187Z,2.37
2018-09-27T23:17:02.383Z,0.67
2018-09-27T23:19:29.614Z,0.90
2018-09-27T23:21:56.887Z,1.40
2018-09-27T23:24:24.100Z,0.90
2018-09-27T23:26:51.292Z,0.90
2018-09-27T23:29:18.523Z,1.30
2018-09-27T23:31:45.802Z,0.90
2018-09-27T23:34:13.112Z,1.17
2018-09-27T23:36:40.419Z,1.20
2018-09-27T23:39:08.487Z,1.03
2018-09-27T23:41:35.878Z,1.20
2018-09-27T23:44:03.314Z,2.03
2018-09-27T23:46:30.521Z,1.40
2018-09-27T23:48:57.762Z,1.30
2018-09-27T23:51:25.124Z,1.27
2018-09-27T23:53:52.322Z,1.93
2018-09-27T23:56:19.527Z,1.17
2018-09-27T23:58:46.761Z,1.73
